sensor_id;sensor_type;location;lat;lon;timestamp;temperature;humidity
34646;DHT22;20857;47.808;12.482;2023-03-20T00:00:41;8.40;99.90
34646;DHT22;20857;47.808;12.482;2023-03-20T00:03:09;8.40;99.90
34646;DHT22;20857;47.808;12.482;2023-03-20T00:05:34;8.40;99.90
34646;DHT22;20857;47.808;12.482;2023-03-20T00:08:00;8.50;99.90
34646;DHT22;20857;47.808;12.482;2023-03-20T00:10:30;8.50;99.90
34646;DHT22;20857;47.808;12.482;2023-03-20T00:12:56;8.50;99.90
34646;DHT22;20857;47.808;12.482;2023-03-20T00:15:23;8.50;99.90
34646;DHT22;20857;47.808;12.482;2023-03-20T00:17:50;8.50;99.90
34646;DHT22;20857;47.808;12.482;2023-03-20T00:20:15;8.40;99.90
34646;DHT22;20857;47.808;12.482;2023-03-20T00:22:41;8.50;99.90
34646;DHT22;20857;47.808;12.482;2023-03-20T00:25:11;8.40;99.90
34646;DHT22;20857;47.808;12.482;2023-03-20T00:27:37;8.50;99.90
34646;DHT22;20857;47.808;12.482;2023-03-20T00:30:04;8.50;99.90
34646;DHT22;20857;47.808;12.482;2023-03-20T00:32:29;8.50;99.90
34646;DHT22;20857;47.808;12.482;2023-03-20T00:34:55;8.50;99.90
34646;DHT22;20857;47.808;12.482;2023-03-20T00:37:20;8.50;99.90
34646;DHT22;20857;47.808;12.482;2023-03-20T00:39:46;9.60;99.90
34646;DHT22;20857;47.808;12.482;2023-03-20T00:42:15;10.20;99.90
34646;DHT22;20857;47.808;12.482;2023-03-20T00:44:43;8.40;99.90
34646;DHT22;20857;47.808;12.482;2023-03-20T00:47:15;8.40;99.90
34646;DHT22;20857;47.808;12.482;2023-03-20T00:49:42;8.50;99.90
34646;DHT22;20857;47.808;12.482;2023-03-20T00:52:10;8.50;99.90
34646;DHT22;20857;47.808;12.482;2023-03-20T00:54:36;8.40;99.90
34646;DHT22;20857;47.808;12.482;2023-03-20T00:59:29;8.40;99.90
34646;DHT22;20857;47.808;12.482;2023-03-20T01:01:55;8.40;99.90
34646;DHT22;20857;47.808;12.482;2023-03-20T01:04:21;8.40;99.90
34646;DHT22;20857;47.808;12.482;2023-03-20T01:06:46;8.40;99.90
34646;DHT22;20857;47.808;12.482;2023-03-20T01:09:12;8.40;99.90
34646;DHT22;20857;47.808;12.482;2023-03-20T01:11:38;8.40;99.90
34646;DHT22;20857;47.808;12.482;2023-03-20T01:14:05;8.40;99.90
34646;DHT22;20857;47.808;12.482;2023-03-20T01:16:31;8.30;99.90
34646;DHT22;20857;47.808;12.482;2023-03-20T01:18:56;8.40;99.90
34646;DHT22;20857;47.808;12.482;2023-03-20T01:21:22;8.40;99.90
34646;DHT22;20857;47.808;12.482;2023-03-20T01:23:48;8.30;99.90
34646;DHT22;20857;47.808;12.482;2023-03-20T01:26:26;8.40;99.90
34646;DHT22;20857;47.808;12.482;2023-03-20T01:28:53;8.40;99.90
34646;DHT22;20857;47.808;12.482;2023-03-20T01:31:19;8.40;99.90
34646;DHT22;20857;47.808;12.482;2023-03-20T01:33:45;8.40;99.90
34646;DHT22;20857;47.808;12.482;2023-03-20T01:36:14;8.40;99.90
34646;DHT22;20857;47.808;12.482;2023-03-20T01:38:41;8.40;99.90
34646;DHT22;20857;47.808;12.482;2023-03-20T01:43:36;8.40;99.90
34646;DHT22;20857;47.808;12.482;2023-03-20T01:46:03;8.40;99.90
34646;DHT22;20857;47.808;12.482;2023-03-20T01:51:21;8.40;99.90
34646;DHT22;20857;47.808;12.482;2023-03-20T01:53:49;8.30;99.90
34646;DHT22;20857;47.808;12.482;2023-03-20T01:56:15;8.40;99.90
34646;DHT22;20857;47.808;12.482;2023-03-20T01:58:43;8.30;99.90
34646;DHT22;20857;47.808;12.482;2023-03-20T02:01:11;8.30;99.90
34646;DHT22;20857;47.808;12.482;2023-03-20T02:03:38;8.30;99.90
34646;DHT22;20857;47.808;12.482;2023-03-20T02:06:03;8.30;99.90
34646;DHT22;20857;47.808;12.482;2023-03-20T02:08:30;8.30;99.90
34646;DHT22;20857;47.808;12.482;2023-03-20T02:10:57;8.30;99.90
34646;DHT22;20857;47.808;12.482;2023-03-20T02:13:25;8.30;99.90
34646;DHT22;20857;47.808;12.482;2023-03-20T02:15:55;8.40;99.90
34646;DHT22;20857;47.808;12.482;2023-03-20T02:18:21;8.40;99.90
34646;DHT22;20857;47.808;12.482;2023-03-20T02:23:39;8.30;99.90
34646;DHT22;20857;47.808;12.482;2023-03-20T02:26:17;8.40;99.90
34646;DHT22;20857;47.808;12.482;2023-03-20T02:36:24;8.30;99.90
34646;DHT22;20857;47.808;12.482;2023-03-20T02:41:29;8.40;99.90
34646;DHT22;20857;47.808;12.482;2023-03-20T03:02:06;8.30;99.90
34646;DHT22;20857;47.808;12.482;2023-03-20T03:04:34;8.30;99.90
34646;DHT22;20857;47.808;12.482;2023-03-20T03:07:00;8.50;99.90
34646;DHT22;20857;47.808;12.482;2023-03-20T03:09:32;9.10;99.90
34646;DHT22;20857;47.808;12.482;2023-03-20T03:12:01;8.20;99.90
34646;DHT22;20857;47.808;12.482;2023-03-20T03:14:30;8.20;99.90
34646;DHT22;20857;47.808;12.482;2023-03-20T03:16:56;8.20;99.90
34646;DHT22;20857;47.808;12.482;2023-03-20T03:19:23;8.30;99.90
34646;DHT22;20857;47.808;12.482;2023-03-20T03:21:50;8.30;99.90
34646;DHT22;20857;47.808;12.482;2023-03-20T03:24:26;8.30;99.90
34646;DHT22;20857;47.808;12.482;2023-03-20T03:26:54;8.30;99.90
34646;DHT22;20857;47.808;12.482;2023-03-20T03:29:20;8.30;99.90
34646;DHT22;20857;47.808;12.482;2023-03-20T03:31:48;8.40;99.90
34646;DHT22;20857;47.808;12.482;2023-03-20T03:34:15;8.30;99.90
34646;DHT22;20857;47.808;12.482;2023-03-20T03:41:44;8.30;99.90
34646;DHT22;20857;47.808;12.482;2023-03-20T03:44:12;8.30;99.90
34646;DHT22;20857;47.808;12.482;2023-03-20T03:49:18;8.30;99.90
34646;DHT22;20857;47.808;12.482;2023-03-20T03:51:45;8.30;99.90
34646;DHT22;20857;47.808;12.482;2023-03-20T03:54:19;8.30;99.90
34646;DHT22;20857;47.808;12.482;2023-03-20T03:56:46;8.30;99.90
34646;DHT22;20857;47.808;12.482;2023-03-20T03:59:19;8.30;99.90
34646;DHT22;20857;47.808;12.482;2023-03-20T04:01:45;8.30;99.90
34646;DHT22;20857;47.808;12.482;2023-03-20T04:04:12;8.30;99.90
34646;DHT22;20857;47.808;12.482;2023-03-20T04:06:39;8.20;99.90
34646;DHT22;20857;47.808;12.482;2023-03-20T04:09:06;8.30;99.90
34646;DHT22;20857;47.808;12.482;2023-03-20T04:11:32;8.30;99.90
34646;DHT22;20857;47.808;12.482;2023-03-20T04:13:59;8.20;99.90
34646;DHT22;20857;47.808;12.482;2023-03-20T04:16:25;8.30;99.90
34646;DHT22;20857;47.808;12.482;2023-03-20T04:18:51;8.20;99.90
34646;DHT22;20857;47.808;12.482;2023-03-20T04:21:17;8.20;99.90
34646;DHT22;20857;47.808;12.482;2023-03-20T04:23:43;8.20;99.90
34646;DHT22;20857;47.808;12.482;2023-03-20T04:26:09;8.30;99.90
34646;DHT22;20857;47.808;12.482;2023-03-20T04:28:34;8.30;99.90
34646;DHT22;20857;47.808;12.482;2023-03-20T04:31:00;8.30;99.90
34646;DHT22;20857;47.808;12.482;2023-03-20T04:33:26;8.30;99.90
34646;DHT22;20857;47.808;12.482;2023-03-20T04:35:52;8.30;99.90
34646;DHT22;20857;47.808;12.482;2023-03-20T04:38:18;8.40;99.90
34646;DHT22;20857;47.808;12.482;2023-03-20T04:40:44;8.30;99.90
34646;DHT22;20857;47.808;12.482;2023-03-20T04:43:10;8.30;99.90
34646;DHT22;20857;47.808;12.482;2023-03-20T04:45:36;8.20;99.90
34646;DHT22;20857;47.808;12.482;2023-03-20T04:48:01;8.30;99.90
34646;DHT22;20857;47.808;12.482;2023-03-20T04:50:27;8.30;99.90
34646;DHT22;20857;47.808;12.482;2023-03-20T04:52:52;8.20;99.90
34646;DHT22;20857;47.808;12.482;2023-03-20T04:55:18;8.20;99.90
34646;DHT22;20857;47.808;12.482;2023-03-20T04:57:43;8.30;99.90
34646;DHT22;20857;47.808;12.482;2023-03-20T05:00:09;8.30;99.90
34646;DHT22;20857;47.808;12.482;2023-03-20T05:02:35;8.30;99.90
34646;DHT22;20857;47.808;12.482;2023-03-20T05:05:01;8.20;99.90
34646;DHT22;20857;47.808;12.482;2023-03-20T05:07:26;8.30;99.90
34646;DHT22;20857;47.808;12.482;2023-03-20T05:09:52;8.20;99.90
34646;DHT22;20857;47.808;12.482;2023-03-20T05:12:17;8.20;99.90
34646;DHT22;20857;47.808;12.482;2023-03-20T05:14:42;8.10;99.90
34646;DHT22;20857;47.808;12.482;2023-03-20T05:17:08;8.20;99.90
34646;DHT22;20857;47.808;12.482;2023-03-20T05:19:33;8.10;99.90
34646;DHT22;20857;47.808;12.482;2023-03-20T05:21:59;8.10;99.90
34646;DHT22;20857;47.808;12.482;2023-03-20T05:24:25;8.10;99.90
34646;DHT22;20857;47.808;12.482;2023-03-20T05:26:53;8.00;99.90
34646;DHT22;20857;47.808;12.482;2023-03-20T05:29:18;8.10;99.90
34646;DHT22;20857;47.808;12.482;2023-03-20T05:31:44;8.00;99.90
34646;DHT22;20857;47.808;12.482;2023-03-20T05:34:10;8.00;99.90
34646;DHT22;20857;47.808;12.482;2023-03-20T05:36:35;8.00;99.90
34646;DHT22;20857;47.808;12.482;2023-03-20T05:39:01;8.00;99.90
34646;DHT22;20857;47.808;12.482;2023-03-20T05:41:26;8.10;99.90
34646;DHT22;20857;47.808;12.482;2023-03-20T05:43:52;8.00;99.90
34646;DHT22;20857;47.808;12.482;2023-03-20T05:46:17;8.10;99.90
34646;DHT22;20857;47.808;12.482;2023-03-20T05:48:43;8.10;99.90
34646;DHT22;20857;47.808;12.482;2023-03-20T05:51:08;8.10;99.90
34646;DHT22;20857;47.808;12.482;2023-03-20T05:53:34;8.10;99.90
34646;DHT22;20857;47.808;12.482;2023-03-20T05:55:59;8.20;99.90
34646;DHT22;20857;47.808;12.482;2023-03-20T05:58:25;8.20;99.90
34646;DHT22;20857;47.808;12.482;2023-03-20T06:00:50;8.20;99.90
34646;DHT22;20857;47.808;12.482;2023-03-20T06:03:16;8.30;99.90
34646;DHT22;20857;47.808;12.482;2023-03-20T06:05:42;8.30;99.90
34646;DHT22;20857;47.808;12.482;2023-03-20T06:08:08;8.30;99.90
34646;DHT22;20857;47.808;12.482;2023-03-20T06:10:33;8.30;99.90
34646;DHT22;20857;47.808;12.482;2023-03-20T06:12:59;8.40;99.90
34646;DHT22;20857;47.808;12.482;2023-03-20T06:15:28;8.30;99.90
34646;DHT22;20857;47.808;12.482;2023-03-20T06:17:54;8.40;99.90
34646;DHT22;20857;47.808;12.482;2023-03-20T06:20:20;8.30;99.90
34646;DHT22;20857;47.808;12.482;2023-03-20T06:22:46;8.30;99.90
34646;DHT22;20857;47.808;12.482;2023-03-20T06:25:11;8.30;99.90
34646;DHT22;20857;47.808;12.482;2023-03-20T06:27:36;8.40;99.90
34646;DHT22;20857;47.808;12.482;2023-03-20T06:30:02;8.50;99.90
34646;DHT22;20857;47.808;12.482;2023-03-20T06:32:28;8.40;99.90
34646;DHT22;20857;47.808;12.482;2023-03-20T06:34:54;8.30;99.90
34646;DHT22;20857;47.808;12.482;2023-03-20T06:37:19;8.40;99.90
34646;DHT22;20857;47.808;12.482;2023-03-20T06:39:45;8.40;99.90
34646;DHT22;20857;47.808;12.482;2023-03-20T06:42:10;8.40;99.90
34646;DHT22;20857;47.808;12.482;2023-03-20T06:44:37;8.40;99.90
34646;DHT22;20857;47.808;12.482;2023-03-20T06:47:02;8.40;99.90
34646;DHT22;20857;47.808;12.482;2023-03-20T06:49:28;8.40;99.90
34646;DHT22;20857;47.808;12.482;2023-03-20T06:51:53;8.40;99.90
34646;DHT22;20857;47.808;12.482;2023-03-20T06:54:19;8.30;99.90
34646;DHT22;20857;47.808;12.482;2023-03-20T06:56:45;8.30;99.90
34646;DHT22;20857;47.808;12.482;2023-03-20T06:59:11;8.30;99.90
34646;DHT22;20857;47.808;12.482;2023-03-20T07:01:36;8.40;99.90
34646;DHT22;20857;47.808;12.482;2023-03-20T07:04:01;8.40;99.90
34646;DHT22;20857;47.808;12.482;2023-03-20T07:06:27;8.40;99.90
34646;DHT22;20857;47.808;12.482;2023-03-20T07:08:52;8.40;99.90
34646;DHT22;20857;47.808;12.482;2023-03-20T07:11:18;8.50;99.90
34646;DHT22;20857;47.808;12.482;2023-03-20T07:13:43;8.40;99.90
34646;DHT22;20857;47.808;12.482;2023-03-20T07:16:09;8.40;99.90
34646;DHT22;20857;47.808;12.482;2023-03-20T07:18:35;8.40;99.90
34646;DHT22;20857;47.808;12.482;2023-03-20T07:21:02;8.40;99.90
34646;DHT22;20857;47.808;12.482;2023-03-20T07:23:28;8.40;99.90
34646;DHT22;20857;47.808;12.482;2023-03-20T07:25:55;8.40;99.90
34646;DHT22;20857;47.808;12.482;2023-03-20T07:28:20;8.40;99.90
34646;DHT22;20857;47.808;12.482;2023-03-20T07:30:46;8.40;99.90
34646;DHT22;20857;47.808;12.482;2023-03-20T07:33:12;8.30;99.90
34646;DHT22;20857;47.808;12.482;2023-03-20T07:35:37;9.00;99.90
34646;DHT22;20857;47.808;12.482;2023-03-20T07:38:03;8.40;99.90
34646;DHT22;20857;47.808;12.482;2023-03-20T07:40:29;8.30;99.90
34646;DHT22;20857;47.808;12.482;2023-03-20T07:42:54;8.30;99.90
34646;DHT22;20857;47.808;12.482;2023-03-20T07:45:20;8.10;99.90
34646;DHT22;20857;47.808;12.482;2023-03-20T07:47:45;8.20;99.90
34646;DHT22;20857;47.808;12.482;2023-03-20T07:50:12;8.30;99.90
34646;DHT22;20857;47.808;12.482;2023-03-20T07:52:38;8.30;99.90
34646;DHT22;20857;47.808;12.482;2023-03-20T07:55:03;8.40;99.90
34646;DHT22;20857;47.808;12.482;2023-03-20T07:57:29;8.40;99.90
34646;DHT22;20857;47.808;12.482;2023-03-20T07:59:55;8.40;99.90
34646;DHT22;20857;47.808;12.482;2023-03-20T08:02:21;8.40;99.90
34646;DHT22;20857;47.808;12.482;2023-03-20T08:04:46;8.40;99.90
34646;DHT22;20857;47.808;12.482;2023-03-20T08:07:12;8.50;99.90
34646;DHT22;20857;47.808;12.482;2023-03-20T08:09:37;8.50;99.90
34646;DHT22;20857;47.808;12.482;2023-03-20T08:12:03;8.60;99.90
34646;DHT22;20857;47.808;12.482;2023-03-20T08:14:29;8.60;99.90
34646;DHT22;20857;47.808;12.482;2023-03-20T08:16:55;8.60;99.90
34646;DHT22;20857;47.808;12.482;2023-03-20T08:19:20;8.50;99.90
34646;DHT22;20857;47.808;12.482;2023-03-20T08:21:46;8.50;99.90
34646;DHT22;20857;47.808;12.482;2023-03-20T08:24:11;8.50;99.90
34646;DHT22;20857;47.808;12.482;2023-03-20T08:26:37;8.60;99.90
34646;DHT22;20857;47.808;12.482;2023-03-20T08:29:02;8.60;99.90
34646;DHT22;20857;47.808;12.482;2023-03-20T08:31:28;8.60;99.90
34646;DHT22;20857;47.808;12.482;2023-03-20T08:33:54;8.60;99.90
34646;DHT22;20857;47.808;12.482;2023-03-20T08:36:19;8.60;99.90
34646;DHT22;20857;47.808;12.482;2023-03-20T08:38:46;8.70;99.90
34646;DHT22;20857;47.808;12.482;2023-03-20T08:41:12;8.80;99.90
34646;DHT22;20857;47.808;12.482;2023-03-20T08:43:37;8.80;99.90
34646;DHT22;20857;47.808;12.482;2023-03-20T08:46:03;9.00;99.90
34646;DHT22;20857;47.808;12.482;2023-03-20T08:48:29;9.00;99.90
34646;DHT22;20857;47.808;12.482;2023-03-20T08:50:54;9.00;99.90
34646;DHT22;20857;47.808;12.482;2023-03-20T08:53:20;9.00;99.90
34646;DHT22;20857;47.808;12.482;2023-03-20T08:55:49;9.10;99.90
34646;DHT22;20857;47.808;12.482;2023-03-20T08:58:15;9.10;99.90
34646;DHT22;20857;47.808;12.482;2023-03-20T09:00:40;9.10;99.90
34646;DHT22;20857;47.808;12.482;2023-03-20T09:03:06;9.30;99.90
34646;DHT22;20857;47.808;12.482;2023-03-20T09:05:32;9.30;99.90
34646;DHT22;20857;47.808;12.482;2023-03-20T09:08:00;9.30;99.90
34646;DHT22;20857;47.808;12.482;2023-03-20T09:10:26;9.40;99.90
34646;DHT22;20857;47.808;12.482;2023-03-20T09:12:51;9.60;99.90
34646;DHT22;20857;47.808;12.482;2023-03-20T09:15:17;9.70;99.90
34646;DHT22;20857;47.808;12.482;2023-03-20T09:17:42;9.70;99.90
34646;DHT22;20857;47.808;12.482;2023-03-20T09:20:08;9.80;99.90
34646;DHT22;20857;47.808;12.482;2023-03-20T09:22:34;9.90;99.90
34646;DHT22;20857;47.808;12.482;2023-03-20T09:24:59;9.90;99.90
34646;DHT22;20857;47.808;12.482;2023-03-20T09:27:25;9.80;99.90
34646;DHT22;20857;47.808;12.482;2023-03-20T09:29:50;9.90;99.90
34646;DHT22;20857;47.808;12.482;2023-03-20T09:32:16;9.90;99.90
34646;DHT22;20857;47.808;12.482;2023-03-20T09:34:41;9.90;99.90
34646;DHT22;20857;47.808;12.482;2023-03-20T09:37:07;9.90;99.90
34646;DHT22;20857;47.808;12.482;2023-03-20T09:39:32;9.90;99.90
34646;DHT22;20857;47.808;12.482;2023-03-20T09:41:59;9.90;99.90
34646;DHT22;20857;47.808;12.482;2023-03-20T09:47:31;10.00;99.90
34646;DHT22;20857;47.808;12.482;2023-03-20T09:52:26;10.30;99.90
34646;DHT22;20857;47.808;12.482;2023-03-20T09:54:56;10.60;99.90
34646;DHT22;20857;47.808;12.482;2023-03-20T09:59:49;11.20;99.90
34646;DHT22;20857;47.808;12.482;2023-03-20T10:02:22;11.50;99.90
34646;DHT22;20857;47.808;12.482;2023-03-20T10:04:53;11.90;99.90
34646;DHT22;20857;47.808;12.482;2023-03-20T10:07:19;12.00;99.90
34646;DHT22;20857;47.808;12.482;2023-03-20T10:09:46;12.20;99.90
34646;DHT22;20857;47.808;12.482;2023-03-20T10:12:22;12.50;99.90
34646;DHT22;20857;47.808;12.482;2023-03-20T10:18:09;12.50;99.90
34646;DHT22;20857;47.808;12.482;2023-03-20T10:20:13;12.70;99.90
34646;DHT22;20857;47.808;12.482;2023-03-20T10:23:03;13.00;99.90
34646;DHT22;20857;47.808;12.482;2023-03-20T10:25:36;13.10;99.90
34646;DHT22;20857;47.808;12.482;2023-03-20T10:28:05;13.10;99.90
34646;DHT22;20857;47.808;12.482;2023-03-20T10:30:37;13.40;99.90
34646;DHT22;20857;47.808;12.482;2023-03-20T10:40:44;13.70;99.90
34646;DHT22;20857;47.808;12.482;2023-03-20T10:45:43;14.00;99.90
34646;DHT22;20857;47.808;12.482;2023-03-20T10:48:12;14.00;99.90
34646;DHT22;20857;47.808;12.482;2023-03-20T10:50:41;13.80;99.90
34646;DHT22;20857;47.808;12.482;2023-03-20T10:53:09;13.80;99.90
34646;DHT22;20857;47.808;12.482;2023-03-20T10:55:43;14.00;99.90
34646;DHT22;20857;47.808;12.482;2023-03-20T10:58:44;14.30;99.90
34646;DHT22;20857;47.808;12.482;2023-03-20T11:01:01;14.40;99.90
34646;DHT22;20857;47.808;12.482;2023-03-20T11:03:28;14.70;99.90
34646;DHT22;20857;47.808;12.482;2023-03-20T11:06:01;14.70;99.90
34646;DHT22;20857;47.808;12.482;2023-03-20T11:08:34;14.80;99.90
34646;DHT22;20857;47.808;12.482;2023-03-20T11:11:01;14.80;99.90
34646;DHT22;20857;47.808;12.482;2023-03-20T11:13:34;14.80;99.90
34646;DHT22;20857;47.808;12.482;2023-03-20T11:16:08;15.00;99.90
34646;DHT22;20857;47.808;12.482;2023-03-20T11:18:33;14.80;99.90
34646;DHT22;20857;47.808;12.482;2023-03-20T11:20:59;14.40;99.90
34646;DHT22;20857;47.808;12.482;2023-03-20T11:23:26;14.20;99.90
34646;DHT22;20857;47.808;12.482;2023-03-20T11:25:56;14.50;99.90
34646;DHT22;20857;47.808;12.482;2023-03-20T11:30:55;15.10;99.90
34646;DHT22;20857;47.808;12.482;2023-03-20T11:33:21;15.60;99.90
34646;DHT22;20857;47.808;12.482;2023-03-20T11:35:52;15.70;99.90
34646;DHT22;20857;47.808;12.482;2023-03-20T11:38:20;16.00;99.90
34646;DHT22;20857;47.808;12.482;2023-03-20T11:40:46;16.00;99.90
34646;DHT22;20857;47.808;12.482;2023-03-20T11:43:13;15.40;99.90
34646;DHT22;20857;47.808;12.482;2023-03-20T11:45:40;14.90;99.90
34646;DHT22;20857;47.808;12.482;2023-03-20T11:48:13;14.20;99.90
34646;DHT22;20857;47.808;12.482;2023-03-20T11:50:42;13.60;99.90
34646;DHT22;20857;47.808;12.482;2023-03-20T11:55:43;12.10;99.90
34646;DHT22;20857;47.808;12.482;2023-03-20T11:58:13;11.70;99.90
34646;DHT22;20857;47.808;12.482;2023-03-20T12:00:41;11.70;99.90
34646;DHT22;20857;47.808;12.482;2023-03-20T12:05:51;11.30;99.90
34646;DHT22;20857;47.808;12.482;2023-03-20T12:08:24;11.10;99.90
34646;DHT22;20857;47.808;12.482;2023-03-20T12:11:35;11.00;99.90
34646;DHT22;20857;47.808;12.482;2023-03-20T12:13:39;11.00;99.90
34646;DHT22;20857;47.808;12.482;2023-03-20T12:16:11;11.10;99.90
34646;DHT22;20857;47.808;12.482;2023-03-20T12:18:44;11.30;99.90
34646;DHT22;20857;47.808;12.482;2023-03-20T12:21:11;11.40;99.90
34646;DHT22;20857;47.808;12.482;2023-03-20T12:23:46;11.60;99.90
34646;DHT22;20857;47.808;12.482;2023-03-20T12:33:47;11.50;99.90
34646;DHT22;20857;47.808;12.482;2023-03-20T12:36:14;11.50;99.90
34646;DHT22;20857;47.808;12.482;2023-03-20T12:38:40;11.50;99.90
34646;DHT22;20857;47.808;12.482;2023-03-20T12:41:21;11.50;99.90
34646;DHT22;20857;47.808;12.482;2023-03-20T12:44:11;11.40;99.90
34646;DHT22;20857;47.808;12.482;2023-03-20T12:51:42;11.80;99.90
34646;DHT22;20857;47.808;12.482;2023-03-20T12:56:50;12.10;99.90
34646;DHT22;20857;47.808;12.482;2023-03-20T13:06:59;12.10;99.90
34646;DHT22;20857;47.808;12.482;2023-03-20T13:24:45;12.20;99.90
34646;DHT22;20857;47.808;12.482;2023-03-20T13:29:49;12.40;99.90
34646;DHT22;20857;47.808;12.482;2023-03-20T13:32:21;12.40;99.90
34646;DHT22;20857;47.808;12.482;2023-03-20T13:39:57;12.80;99.90
34646;DHT22;20857;47.808;12.482;2023-03-20T13:42:24;13.00;99.90
34646;DHT22;20857;47.808;12.482;2023-03-20T13:44:53;13.00;99.90
34646;DHT22;20857;47.808;12.482;2023-03-20T13:47:24;12.80;99.90
34646;DHT22;20857;47.808;12.482;2023-03-20T13:52:20;12.90;99.90
34646;DHT22;20857;47.808;12.482;2023-03-20T13:57:21;13.30;99.90
34646;DHT22;20857;47.808;12.482;2023-03-20T14:04:48;14.10;99.90
34646;DHT22;20857;47.808;12.482;2023-03-20T14:07:29;14.40;99.90
34646;DHT22;20857;47.808;12.482;2023-03-20T14:09:54;14.40;99.90
34646;DHT22;20857;47.808;12.482;2023-03-20T14:12:22;14.30;99.90
34646;DHT22;20857;47.808;12.482;2023-03-20T14:14:49;14.10;99.90
34646;DHT22;20857;47.808;12.482;2023-03-20T14:17:18;14.10;99.90
34646;DHT22;20857;47.808;12.482;2023-03-20T14:19:44;13.90;99.90
34646;DHT22;20857;47.808;12.482;2023-03-20T14:22:29;13.70;99.90
34646;DHT22;20857;47.808;12.482;2023-03-20T14:24:59;13.70;99.90
34646;DHT22;20857;47.808;12.482;2023-03-20T14:27:28;13.60;99.90
34646;DHT22;20857;47.808;12.482;2023-03-20T14:29:54;13.50;99.90
34646;DHT22;20857;47.808;12.482;2023-03-20T14:32:21;13.30;99.90
34646;DHT22;20857;47.808;12.482;2023-03-20T14:34:48;13.20;99.90
34646;DHT22;20857;47.808;12.482;2023-03-20T14:37:28;13.20;99.90
34646;DHT22;20857;47.808;12.482;2023-03-20T14:50:31;12.60;99.90
34646;DHT22;20857;47.808;12.482;2023-03-20T14:57:52;12.40;99.90
34646;DHT22;20857;47.808;12.482;2023-03-20T15:00:18;12.30;99.90
34646;DHT22;20857;47.808;12.482;2023-03-20T15:02:45;12.30;99.90
34646;DHT22;20857;47.808;12.482;2023-03-20T15:05:26;12.30;99.90
34646;DHT22;20857;47.808;12.482;2023-03-20T15:07:55;12.20;99.90
34646;DHT22;20857;47.808;12.482;2023-03-20T15:10:20;12.20;99.90
34646;DHT22;20857;47.808;12.482;2023-03-20T15:12:46;12.20;99.90
34646;DHT22;20857;47.808;12.482;2023-03-20T15:15:45;12.30;99.90
34646;DHT22;20857;47.808;12.482;2023-03-20T15:18:11;12.30;99.90
34646;DHT22;20857;47.808;12.482;2023-03-20T15:20:38;12.30;99.90
34646;DHT22;20857;47.808;12.482;2023-03-20T15:23:03;12.30;99.90
34646;DHT22;20857;47.808;12.482;2023-03-20T15:28:05;12.30;99.90
34646;DHT22;20857;47.808;12.482;2023-03-20T15:30:31;12.30;99.90
34646;DHT22;20857;47.808;12.482;2023-03-20T15:32:58;12.30;99.90
34646;DHT22;20857;47.808;12.482;2023-03-20T15:35:25;12.30;99.90
34646;DHT22;20857;47.808;12.482;2023-03-20T15:37:50;12.30;99.90
34646;DHT22;20857;47.808;12.482;2023-03-20T15:40:22;12.30;99.90
34646;DHT22;20857;47.808;12.482;2023-03-20T15:43:05;12.30;99.90
34646;DHT22;20857;47.808;12.482;2023-03-20T15:45:32;12.30;99.90
34646;DHT22;20857;47.808;12.482;2023-03-20T15:48:07;12.30;99.90
34646;DHT22;20857;47.808;12.482;2023-03-20T15:50:34;12.40;99.90
34646;DHT22;20857;47.808;12.482;2023-03-20T15:53:00;12.40;99.90
34646;DHT22;20857;47.808;12.482;2023-03-20T15:55:26;12.40;99.90
34646;DHT22;20857;47.808;12.482;2023-03-20T15:57:54;12.40;99.90
34646;DHT22;20857;47.808;12.482;2023-03-20T16:00:30;12.30;99.90
34646;DHT22;20857;47.808;12.482;2023-03-20T16:02:58;12.40;99.90
34646;DHT22;20857;47.808;12.482;2023-03-20T16:05:24;12.40;99.90
34646;DHT22;20857;47.808;12.482;2023-03-20T16:07:50;12.40;99.90
34646;DHT22;20857;47.808;12.482;2023-03-20T16:10:17;12.30;99.90
34646;DHT22;20857;47.808;12.482;2023-03-20T16:12:47;12.30;99.90
34646;DHT22;20857;47.808;12.482;2023-03-20T16:15:14;12.30;99.90
34646;DHT22;20857;47.808;12.482;2023-03-20T16:17:42;12.30;99.90
34646;DHT22;20857;47.808;12.482;2023-03-20T16:20:14;12.30;99.90
34646;DHT22;20857;47.808;12.482;2023-03-20T16:22:41;12.30;99.90
34646;DHT22;20857;47.808;12.482;2023-03-20T16:25:08;12.30;99.90
34646;DHT22;20857;47.808;12.482;2023-03-20T16:27:36;12.30;99.90
34646;DHT22;20857;47.808;12.482;2023-03-20T16:30:04;12.40;99.90
34646;DHT22;20857;47.808;12.482;2023-03-20T16:35:00;13.30;99.90
34646;DHT22;20857;47.808;12.482;2023-03-20T16:37:28;13.30;99.90
34646;DHT22;20857;47.808;12.482;2023-03-20T16:40:01;13.20;99.90
34646;DHT22;20857;47.808;12.482;2023-03-20T16:42:28;12.90;99.90
34646;DHT22;20857;47.808;12.482;2023-03-20T16:44:54;12.70;99.90
34646;DHT22;20857;47.808;12.482;2023-03-20T16:47:21;12.50;99.90
34646;DHT22;20857;47.808;12.482;2023-03-20T16:52:22;12.10;99.90
34646;DHT22;20857;47.808;12.482;2023-03-20T16:54:50;11.80;99.90
34646;DHT22;20857;47.808;12.482;2023-03-20T16:57:16;11.60;99.90
34646;DHT22;20857;47.808;12.482;2023-03-20T16:59:42;11.40;99.90
34646;DHT22;20857;47.808;12.482;2023-03-20T17:02:11;11.20;99.90
34646;DHT22;20857;47.808;12.482;2023-03-20T17:04:48;11.00;99.90
34646;DHT22;20857;47.808;12.482;2023-03-20T17:07:14;10.80;99.90
34646;DHT22;20857;47.808;12.482;2023-03-20T17:09:53;10.70;99.90
34646;DHT22;20857;47.808;12.482;2023-03-20T17:12:19;10.40;99.90
34646;DHT22;20857;47.808;12.482;2023-03-20T17:14:44;10.30;99.90
34646;DHT22;20857;47.808;12.482;2023-03-20T17:17:13;10.10;99.90
34646;DHT22;20857;47.808;12.482;2023-03-20T17:19:39;10.00;99.90
34646;DHT22;20857;47.808;12.482;2023-03-20T17:22:10;9.90;99.90
34646;DHT22;20857;47.808;12.482;2023-03-20T17:24:37;9.80;99.90
34646;DHT22;20857;47.808;12.482;2023-03-20T17:27:03;9.60;99.90
34646;DHT22;20857;47.808;12.482;2023-03-20T17:29:28;9.50;99.90
34646;DHT22;20857;47.808;12.482;2023-03-20T17:31:54;9.40;99.90
34646;DHT22;20857;47.808;12.482;2023-03-20T17:34:20;9.20;99.90
34646;DHT22;20857;47.808;12.482;2023-03-20T17:36:45;9.10;99.90
34646;DHT22;20857;47.808;12.482;2023-03-20T17:39:16;8.80;99.90
34646;DHT22;20857;47.808;12.482;2023-03-20T17:41:43;8.70;99.90
34646;DHT22;20857;47.808;12.482;2023-03-20T17:44:08;8.80;99.90
34646;DHT22;20857;47.808;12.482;2023-03-20T17:46:34;8.50;99.90
34646;DHT22;20857;47.808;12.482;2023-03-20T17:49:00;8.50;99.90
34646;DHT22;20857;47.808;12.482;2023-03-20T17:51:26;8.40;99.90
34646;DHT22;20857;47.808;12.482;2023-03-20T17:53:52;8.70;99.90
34646;DHT22;20857;47.808;12.482;2023-03-20T17:56:19;8.20;99.90
34646;DHT22;20857;47.808;12.482;2023-03-20T17:58:45;8.10;99.90
34646;DHT22;20857;47.808;12.482;2023-03-20T18:01:11;8.10;99.90